Time;durP1;ratioP1;P1;durP2;ratioP2;P2;SDS_P1;SDS_P2;PMS_P1;PMS_P2;Temp;Humidity;BMP_temperature;BMP_pressure;BME280_temperature;BME280_humidity;BME280_pressure;Samples;Min_cycle;Max_cycle;Signal;HPM_P1;HPM_P2
2023/07/31 00:00:12;;;;;;;4.78;2.30;;;;;;;23.60;nan;62049.28;5074269;28;20182;-57
2023/07/31 00:02:38;;;;;;;6.68;2.60;;;;;;;23.46;nan;62215.38;5075611;28;20185;-57
2023/07/31 00:05:03;;;;;;;3.33;2.00;;;;;;;23.51;nan;61947.75;5089988;28;20679;-57
2023/07/31 00:07:29;;;;;;;6.00;2.20;;;;;;;23.66;nan;61995.53;5074152;28;20209;-57
2023/07/31 00:09:56;;;;;;;2.38;1.95;;;;;;;23.42;nan;61919.25;5083496;28;20187;-58
2023/07/31 00:12:22;;;;;;;2.22;1.70;;;;;;;23.63;nan;62117.38;5093980;28;20169;-58
2023/07/31 00:14:47;;;;;;;3.13;2.10;;;;;;;23.52;nan;61997.88;5094262;28;20231;-59
2023/07/31 00:17:12;;;;;;;1.92;1.73;;;;;;;23.31;nan;61933.38;5094137;28;20226;-57
2023/07/31 00:19:38;;;;;;;3.03;1.90;;;;;;;23.55;nan;61983.59;5094171;28;20257;-57
2023/07/31 00:22:03;;;;;;;2.40;1.73;;;;;;;23.54;nan;62131.16;5094318;28;20177;-59
2023/07/31 00:24:29;;;;;;;2.42;1.85;;;;;;;23.68;nan;62039.56;5094341;28;20176;-58
2023/07/31 00:26:54;;;;;;;2.25;1.90;;;;;;;23.62;nan;61985.78;5093472;28;20215;-57
2023/07/31 00:29:19;;;;;;;2.15;1.50;;;;;;;23.40;nan;61971.72;5093853;28;20174;-57
2023/07/31 00:31:45;;;;;;;2.60;1.63;;;;;;;23.44;nan;61999.81;5094028;28;20220;-57
2023/07/31 00:34:10;;;;;;;1.95;1.60;;;;;;;23.61;nan;62000.88;5094030;28;20177;-57
2023/07/31 00:36:36;;;;;;;3.03;1.73;;;;;;;23.43;nan;62047.63;5093966;28;20177;-56
2023/07/31 00:39:01;;;;;;;2.75;1.70;;;;;;;23.55;nan;62012.28;5093588;28;20565;-57
2023/07/31 00:41:27;;;;;;;2.63;1.83;;;;;;;23.58;nan;62013.09;5093592;28;20616;-57
2023/07/31 00:43:52;;;;;;;2.70;1.67;;;;;;;23.36;nan;62081.94;5093733;28;20157;-56
2023/07/31 00:46:17;;;;;;;2.67;1.83;;;;;;;23.48;nan;62066.94;5093633;28;20169;-58
2023/07/31 00:48:43;;;;;;;2.30;1.70;;;;;;;23.50;nan;61946.63;5093630;28;20259;-58
2023/07/31 00:51:09;;;;;;;2.30;1.63;;;;;;;23.66;nan;62006.56;5093436;28;20703;-58
2023/07/31 00:53:36;;;;;;;1.98;1.63;;;;;;;23.67;nan;62070.31;5093446;28;20216;-58
2023/07/31 00:56:01;;;;;;;2.08;1.70;;;;;;;23.53;nan;61981.34;5093133;28;20173;-57
2023/07/31 00:58:27;;;;;;;2.00;1.50;;;;;;;23.73;nan;62034.81;5074832;28;20666;-58
2023/07/31 01:00:53;;;;;;;3.88;1.83;;;;;;;23.77;nan;62000.22;5093237;28;20173;-57
2023/07/31 01:03:18;;;;;;;3.38;1.75;;;;;;;23.77;nan;62036.75;5093123;28;20235;-58
2023/07/31 01:05:54;;;;;;;2.13;1.70;;;;;;;23.54;nan;61987.09;5093227;28;20227;-58
2023/07/31 01:08:52;;;;;;;1.60;1.50;;;;;;;23.77;nan;62050.38;5093111;28;20192;-58
2023/07/31 01:11:28;;;;;;;2.45;2.03;;;;;;;23.60;nan;61900.00;5093551;28;20230;-59
2023/07/31 01:13:55;;;;;;;1.70;1.40;;;;;;;23.57;nan;61980.66;5092816;28;20180;-58
2023/07/31 01:16:21;;;;;;;2.92;1.90;;;;;;;23.77;nan;62052.97;5091726;28;20200;-57
2023/07/31 01:18:46;;;;;;;2.22;1.73;;;;;;;23.55;nan;61983.03;5070627;28;20209;-57
2023/07/31 01:21:56;;;;;;;2.88;1.80;;;;;;;23.57;nan;61972.28;5070907;28;20186;-56
2023/07/31 01:24:40;;;;;;;3.30;2.22;;;;;;;23.59;nan;62081.50;5089939;28;20177;-57
2023/07/31 01:27:23;;;;;;;3.45;2.53;;;;;;;23.53;nan;61991.19;5052126;28;20744;-56
2023/07/31 01:30:10;;;;;;;5.15;2.88;;;;;;;23.48;nan;61995.94;5071094;28;20173;-56
2023/07/31 01:32:39;;;;;;;5.15;2.67;;;;;;;23.15;nan;61859.91;5092392;28;20173;-57
2023/07/31 01:35:06;;;;;;;5.35;3.10;;;;;;;23.15;nan;61938.69;5092243;28;20181;-56
2023/07/31 01:37:31;;;;;;;4.05;3.28;;;;;;;22.82;nan;62021.63;5092058;28;20177;-58
2023/07/31 01:39:57;;;;;;;6.63;2.97;;;;;;;22.95;nan;61951.88;5092118;28;20165;-57
2023/07/31 01:42:22;;;;;;;6.95;3.92;;;;;;;22.78;nan;62011.84;5092402;28;20172;-57
2023/07/31 01:44:47;;;;;;;10.32;4.25;;;;;;;22.52;nan;61831.19;5092431;28;20174;-58
2023/07/31 01:47:13;;;;;;;9.45;4.97;;;;;;;22.51;nan;61871.16;5091755;28;20691;-58
2023/07/31 01:49:38;;;;;;;10.50;5.43;;;;;;;22.47;nan;61830.75;5090210;28;20180;-57
2023/07/31 01:52:04;;;;;;;11.38;5.07;;;;;;;22.76;nan;61889.16;5090136;28;20180;-58
2023/07/31 01:54:29;;;;;;;7.35;4.40;;;;;;;22.59;nan;62146.50;5089918;28;20594;-58
2023/07/31 01:56:55;;;;;;;9.13;4.75;;;;;;;22.53;nan;61805.72;5089480;28;20586;-57
2023/07/31 01:59:21;;;;;;;12.13;5.95;;;;;;;22.82;nan;61995.00;5090747;28;20177;-57
2023/07/31 02:01:46;;;;;;;16.40;7.63;;;;;;;22.56;nan;61882.06;5091322;28;20519;-58
2023/07/31 02:04:11;;;;;;;19.38;10.48;;;;;;;22.66;nan;62127.88;5092238;28;20165;-58
2023/07/31 02:06:38;;;;;;;28.20;14.45;;;;;;;22.53;nan;61998.44;5092509;28;20209;-58
2023/07/31 02:09:03;;;;;;;25.80;13.63;;;;;;;22.66;nan;61862.16;5092023;28;20166;-58
2023/07/31 02:11:28;;;;;;;22.20;10.65;;;;;;;22.54;nan;61853.72;5092151;28;20613;-58
2023/07/31 02:13:54;;;;;;;17.17;9.63;;;;;;;22.60;nan;61926.25;5074107;28;20489;-58
2023/07/31 02:16:19;;;;;;;23.27;11.35;;;;;;;22.67;nan;61847.66;5092368;28;20181;-58
2023/07/31 02:18:44;;;;;;;14.25;8.30;;;;;;;22.62;nan;61881.63;5092589;28;20525;-57
2023/07/31 02:21:10;;;;;;;13.35;7.32;;;;;;;22.67;nan;61928.97;5091783;28;20692;-58
2023/07/31 02:23:35;;;;;;;13.35;7.10;;;;;;;22.59;nan;61856.81;5091522;28;20173;-57
2023/07/31 02:26:01;;;;;;;11.23;5.18;;;;;;;22.74;nan;61853.03;5091888;28;20169;-57
2023/07/31 02:28:26;;;;;;;8.73;4.82;;;;;;;22.76;nan;61982.94;5092154;28;20299;-58
2023/07/31 02:30:52;;;;;;;7.20;3.85;;;;;;;22.99;nan;61920.50;5092317;28;20645;-59
2023/07/31 02:33:17;;;;;;;6.55;3.60;;;;;;;23.22;nan;61910.13;5091632;28;20234;-58
2023/07/31 02:35:43;;;;;;;6.97;3.50;;;;;;;23.34;nan;61931.03;5091675;28;20181;-58
2023/07/31 02:38:08;;;;;;;8.65;4.25;;;;;;;23.37;nan;61970.38;5091391;28;20258;-58
2023/07/31 02:40:34;;;;;;;5.82;3.92;;;;;;;23.29;nan;61938.97;5091526;28;20169;-58
2023/07/31 02:42:59;;;;;;;7.28;4.43;;;;;;;23.46;nan;61957.72;5092334;28;20170;-58
2023/07/31 02:45:24;;;;;;;5.30;3.70;;;;;;;23.57;nan;62011.97;5092071;28;20169;-56
2023/07/31 02:47:50;;;;;;;7.10;3.75;;;;;;;23.60;nan;61988.72;5091909;28;20540;-58
2023/07/31 02:50:15;;;;;;;8.27;4.00;;;;;;;23.45;nan;62062.94;5091714;28;20181;-57
2023/07/31 02:52:41;;;;;;;5.63;3.63;;;;;;;23.72;nan;62020.63;5091635;28;20625;-57
2023/07/31 02:55:06;;;;;;;5.82;3.63;;;;;;;23.67;nan;62023.34;5091543;28;20260;-57
2023/07/31 02:57:32;;;;;;;9.38;3.83;;;;;;;23.69;nan;62111.16;5091659;28;20173;-57
2023/07/31 02:59:57;;;;;;;8.15;3.65;;;;;;;23.80;nan;62010.91;5091577;28;20181;-58
2023/07/31 03:02:22;;;;;;;7.15;3.72;;;;;;;23.89;nan;62031.56;5091600;28;20177;-56
2023/07/31 03:04:48;;;;;;;6.38;3.75;;;;;;;23.80;nan;62029.16;5091413;28;20687;-57
2023/07/31 03:07:13;;;;;;;6.68;3.50;;;;;;;23.73;nan;62008.72;5091272;28;20201;-58
2023/07/31 03:09:39;;;;;;;6.30;3.67;;;;;;;23.72;nan;62276.94;5095157;28;20273;-57
2023/07/31 03:12:04;;;;;;;5.45;3.22;;;;;;;23.90;nan;62098.53;5095567;28;20545;-57
2023/07/31 03:14:30;;;;;;;6.03;4.28;;;;;;;23.53;nan;61968.28;5095631;28;20252;-58
2023/07/31 03:16:55;;;;;;;6.85;3.70;;;;;;;23.30;nan;62047.00;5095038;28;20186;-58
2023/07/31 03:19:20;;;;;;;7.78;4.55;;;;;;;22.86;nan;61885.44;5095343;28;20176;-57
2023/07/31 03:21:46;;;;;;;9.32;5.00;;;;;;;22.71;nan;61901.72;5095139;28;20184;-57
2023/07/31 03:24:12;;;;;;;6.63;4.30;;;;;;;22.49;nan;61504.91;5094834;28;20166;-57
2023/07/31 03:26:38;;;;;;;12.73;5.05;;;;;;;22.56;nan;61377.41;5095055;28;20204;-56
2023/07/31 03:29:04;;;;;;;10.48;5.28;;;;;;;22.41;nan;61116.31;5095273;28;20165;-57
2023/07/31 03:31:29;;;;;;;8.75;5.30;;;;;;;22.36;nan;60891.50;5095125;28;20485;-56
2023/07/31 03:33:54;;;;;;;11.75;5.25;;;;;;;22.33;nan;60310.38;5094853;28;20192;-55
2023/07/31 03:36:20;;;;;;;8.27;5.07;;;;;;;22.21;nan;60388.13;5094621;28;20607;-56
2023/07/31 03:38:46;;;;;;;9.38;5.35;;;;;;;22.17;nan;60022.63;5094423;28;20175;-57
2023/07/31 03:41:12;;;;;;;10.52;5.30;;;;;;;22.37;nan;59554.97;5095348;28;20564;-56
2023/07/31 03:43:37;;;;;;;9.65;5.53;;;;;;;22.48;nan;59718.53;5094759;28;20173;-58
2023/07/31 03:46:02;;;;;;;8.57;5.28;;;;;;;22.37;nan;55270.28;5094588;28;20216;-57
2023/07/31 03:48:28;;;;;;;8.20;5.43;;;;;;;22.19;nan;50942.09;5094543;28;20205;-56
2023/07/31 03:50:54;;;;;;;8.40;4.97;;;;;;;22.05;nan;55281.59;5094619;28;20189;-57
2023/07/31 03:53:19;;;;;;;6.90;4.63;;;;;;;22.19;nan;51705.00;5094454;28;20165;-56
2023/07/31 03:55:44;;;;;;;9.80;5.25;;;;;;;22.10;nan;49071.41;5094807;28;20637;-56
2023/07/31 03:58:10;;;;;;;7.95;5.00;;;;;;;21.97;nan;38352.56;5094416;28;20545;-57
2023/07/31 04:00:35;;;;;;;8.35;5.22;;;;;;;21.95;nan;32529.84;5094711;28;20218;-56
2023/07/31 04:03:00;;;;;;;9.05;5.00;;;;;;;21.72;nan;29545.81;5094156;28;20566;-56
2023/07/31 04:05:26;;;;;;;7.78;5.13;;;;;;;21.64;nan;25915.97;5094338;28;20366;-56
2023/07/31 04:07:52;;;;;;;9.00;4.93;;;;;;;21.68;nan;23613.41;5093452;28;20700;-56
2023/07/31 04:10:18;;;;;;;6.80;4.72;;;;;;;21.87;nan;23623.00;5093904;28;20190;-57
2023/07/31 04:12:43;;;;;;;8.05;4.85;;;;;;;21.80;nan;26254.38;5094316;28;20694;-57
2023/07/31 04:15:09;;;;;;;7.47;4.88;;;;;;;21.57;nan;19661.72;5094002;28;20191;-56
2023/07/31 04:17:34;;;;;;;7.18;4.90;;;;;;;21.55;nan;20647.03;5094605;28;20216;-57
2023/07/31 04:20:00;;;;;;;7.18;4.60;;;;;;;21.82;nan;21316.81;5093556;28;20601;-56
2023/07/31 04:22:25;;;;;;;8.63;4.80;;;;;;;21.78;nan;18355.81;5093407;28;20252;-55
2023/07/31 04:24:50;;;;;;;8.57;4.78;;;;;;;21.00;nan;19636.63;5093978;28;20235;-55
2023/07/31 04:27:16;;;;;;;6.65;4.65;;;;;;;21.78;nan;16055.94;5093273;28;20280;-57
2023/07/31 04:29:42;;;;;;;7.00;4.30;;;;;;;21.72;nan;31194.94;5093901;28;20697;-57
2023/07/31 04:32:08;;;;;;;6.30;4.15;;;;;;;21.89;nan;33516.13;5093726;28;20177;-55
2023/07/31 04:34:33;;;;;;;5.93;3.90;;;;;;;21.94;nan;38557.03;5093800;28;20623;-57
2023/07/31 04:36:59;;;;;;;6.18;3.80;;;;;;;22.11;nan;43551.63;5093251;28;20179;-57
2023/07/31 04:39:24;;;;;;;6.18;4.30;;;;;;;22.03;nan;45810.41;5093557;28;20587;-58
2023/07/31 04:41:49;;;;;;;6.28;4.07;;;;;;;22.27;nan;44944.88;5094094;28;20177;-57
2023/07/31 04:44:15;;;;;;;5.53;4.43;;;;;;;22.32;nan;45679.75;5093304;28;20201;-57
2023/07/31 04:46:40;;;;;;;6.65;3.97;;;;;;;22.27;nan;45530.31;5078866;28;20591;-56
2023/07/31 04:49:05;;;;;;;5.82;4.35;;;;;;;22.30;nan;43173.91;5070766;28;20174;-57
2023/07/31 04:51:31;;;;;;;6.13;4.20;;;;;;;22.53;nan;34880.75;5071778;28;20159;-56
2023/07/31 04:53:56;;;;;;;8.65;4.10;;;;;;;22.62;nan;49263.88;5071886;28;20177;-56
2023/07/31 04:56:22;;;;;;;5.32;3.83;;;;;;;22.79;nan;52201.16;5072108;28;20705;-56
2023/07/31 04:58:47;;;;;;;7.60;4.35;;;;;;;22.92;nan;54365.63;5071830;28;20166;-56
2023/07/31 05:01:13;;;;;;;6.25;4.28;;;;;;;23.06;nan;55597.19;5071795;28;20178;-56
2023/07/31 05:03:38;;;;;;;6.25;4.15;;;;;;;22.98;nan;55432.84;5072271;28;20169;-57
2023/07/31 05:06:03;;;;;;;6.88;4.30;;;;;;;23.03;nan;55724.66;5050599;28;20329;-56
2023/07/31 05:08:29;;;;;;;5.80;4.13;;;;;;;23.14;nan;57005.63;5052338;28;20690;-56
2023/07/31 05:10:54;;;;;;;6.20;3.85;;;;;;;23.26;nan;57161.50;5052169;28;20198;-57
2023/07/31 05:13:19;;;;;;;6.78;4.68;;;;;;;23.24;nan;58039.53;5052362;28;20171;-56
2023/07/31 05:15:45;;;;;;;7.07;3.83;;;;;;;23.22;nan;57800.94;5052600;28;20162;-56
2023/07/31 05:18:10;;;;;;;9.43;4.55;;;;;;;23.28;nan;58343.91;5052252;28;20186;-57
2023/07/31 05:20:36;;;;;;;7.88;4.10;;;;;;;23.50;nan;58142.44;5052337;28;20492;-56
2023/07/31 05:23:01;;;;;;;7.50;4.13;;;;;;;23.48;nan;57846.44;5052190;28;20261;-58
2023/07/31 05:25:28;;;;;;;5.85;3.80;;;;;;;23.64;nan;58796.59;5051204;28;20208;-57
2023/07/31 05:27:53;;;;;;;7.35;4.10;;;;;;;23.51;nan;58078.94;5051930;28;20727;-56
2023/07/31 05:30:19;;;;;;;5.45;4.10;;;;;;;23.71;nan;59252.06;5051227;28;20175;-58
2023/07/31 05:32:45;;;;;;;6.00;3.55;;;;;;;23.67;nan;58997.97;5052289;28;20654;-57
2023/07/31 05:35:10;;;;;;;6.25;4.20;;;;;;;23.56;nan;59968.22;5051665;28;20171;-57
2023/07/31 05:37:35;;;;;;;5.78;4.00;;;;;;;23.82;nan;60351.09;5051744;28;20189;-57
2023/07/31 05:40:01;;;;;;;5.72;4.03;;;;;;;23.81;nan;60277.53;5051549;28;20167;-56
2023/07/31 05:42:26;;;;;;;6.28;3.65;;;;;;;23.96;nan;60515.38;5051468;28;20640;-58
2023/07/31 05:44:52;;;;;;;4.97;3.58;;;;;;;23.72;nan;60596.72;5051474;28;20646;-57
2023/07/31 05:47:17;;;;;;;7.25;4.22;;;;;;;23.92;nan;60647.16;5051617;28;20187;-57
2023/07/31 05:49:43;;;;;;;5.95;4.18;;;;;;;24.00;nan;60726.53;5051195;28;20171;-56
2023/07/31 05:52:09;;;;;;;7.63;4.30;;;;;;;24.22;nan;60860.19;5050846;28;20185;-58
2023/07/31 05:54:34;;;;;;;5.57;3.88;;;;;;;24.25;nan;60834.84;5057279;28;20269;-58
2023/07/31 05:57:00;;;;;;;7.38;4.50;;;;;;;24.63;nan;61132.78;5062931;28;20261;-59
2023/07/31 05:59:25;;;;;;;9.48;4.28;;;;;;;24.85;nan;61365.97;5050832;28;20174;-56
2023/07/31 06:01:51;;;;;;;8.85;4.93;;;;;;;24.96;nan;61556.16;5064462;28;20178;-57
2023/07/31 06:04:16;;;;;;;6.32;4.68;;;;;;;25.13;nan;61596.28;5071359;28;20193;-58
2023/07/31 06:06:42;;;;;;;6.80;4.90;;;;;;;25.39;nan;61740.19;5070852;28;20225;-59
2023/07/31 06:09:07;;;;;;;8.43;4.30;;;;;;;25.48;nan;61750.94;5079321;28;20189;-57
2023/07/31 06:11:33;;;;;;;6.68;4.30;;;;;;;25.78;nan;62019.41;5071469;28;20181;-57
2023/07/31 06:13:59;;;;;;;6.32;4.63;;;;;;;22.22;nan;61482.78;5079250;28;20264;-57
2023/07/31 06:16:24;;;;;;;7.40;4.55;;;;;;;26.07;nan;61997.34;5091762;28;20231;-58
2023/07/31 06:18:50;;;;;;;8.90;5.30;;;;;;;26.09;nan;61983.34;5091869;28;20605;-58
2023/07/31 06:21:15;;;;;;;9.40;5.45;;;;;;;26.28;nan;62060.53;5080800;28;20217;-57
2023/07/31 06:23:41;;;;;;;9.63;5.35;;;;;;;26.35;nan;62042.28;5083206;28;20173;-58
2023/07/31 06:26:06;;;;;;;8.25;5.28;;;;;;;26.36;nan;62051.25;5076628;28;20213;-58
2023/07/31 06:28:32;;;;;;;8.82;6.07;;;;;;;26.44;nan;62119.50;5070810;28;20202;-57
2023/07/31 06:30:58;;;;;;;9.40;5.75;;;;;;;26.66;nan;62050.16;5089935;28;20230;-58
2023/07/31 06:33:24;;;;;;;10.07;6.68;;;;;;;26.49;nan;62204.41;5091505;28;20166;-57
2023/07/31 06:35:50;;;;;;;8.93;5.50;;;;;;;23.52;nan;63467.41;5074343;28;20178;-58
2023/07/31 06:38:15;;;;;;;8.88;5.90;;;;;;;26.73;nan;62157.72;5088440;28;20204;-58
2023/07/31 06:40:41;;;;;;;7.10;5.45;;;;;;;27.10;nan;62209.78;5070887;28;20189;-57
2023/07/31 06:43:07;;;;;;;9.07;5.97;;;;;;;27.04;nan;62345.22;5079759;28;20188;-58
2023/07/31 06:45:37;;;;;;;8.65;5.78;;;;;;;27.28;nan;62250.72;5095177;28;20159;-57
2023/07/31 06:48:03;;;;;;;10.02;5.95;;;;;;;27.00;nan;62201.03;5095128;28;20201;-57
2023/07/31 06:50:30;;;;;;;9.25;5.93;;;;;;;27.06;nan;62247.19;5095433;28;20212;-58
2023/07/31 06:52:55;;;;;;;10.20;5.82;;;;;;;26.79;nan;62314.63;5095309;28;20173;-58
2023/07/31 06:55:22;;;;;;;9.35;5.78;;;;;;;26.67;nan;62256.38;5091185;28;20224;-57
2023/07/31 06:57:48;;;;;;;10.80;6.60;;;;;;;26.96;nan;62304.59;5080005;28;20212;-58
2023/07/31 07:00:14;;;;;;;10.00;6.68;;;;;;;27.03;nan;62233.88;5086494;28;20215;-58
2023/07/31 07:02:40;;;;;;;8.90;6.32;;;;;;;27.52;nan;62352.16;5074137;28;20207;-56
2023/07/31 07:05:06;;;;;;;10.07;6.60;;;;;;;27.61;nan;62325.66;5087241;28;20224;-57
2023/07/31 07:07:32;;;;;;;9.82;6.40;;;;;;;26.74;nan;62342.44;5094762;28;20189;-57
2023/07/31 07:09:59;;;;;;;10.27;6.85;;;;;;;27.64;nan;62407.28;5094748;28;20557;-58
2023/07/31 07:12:25;;;;;;;9.95;6.72;;;;;;;27.72;nan;62379.66;5094467;28;20614;-58
2023/07/31 07:14:52;;;;;;;10.65;6.38;;;;;;;27.65;nan;62327.56;5094764;28;20245;-58
2023/07/31 07:17:18;;;;;;;12.68;6.97;;;;;;;27.58;nan;62571.13;5094470;28;20546;-57
2023/07/31 07:19:45;;;;;;;10.30;6.85;;;;;;;27.74;nan;62439.16;5094538;28;20169;-57
2023/07/31 07:22:11;;;;;;;11.00;7.47;;;;;;;27.56;nan;62608.78;5094652;28;20177;-58
2023/07/31 07:24:36;;;;;;;10.25;6.38;;;;;;;27.93;nan;62413.56;5094438;28;20532;-57
2023/07/31 07:27:02;;;;;;;12.23;7.35;;;;;;;27.97;nan;62454.91;5093979;28;20339;-57
2023/07/31 07:29:27;;;;;;;13.27;7.72;;;;;;;28.16;nan;62529.19;5094551;28;20178;-58
2023/07/31 07:31:53;;;;;;;11.23;7.05;;;;;;;28.25;nan;62488.94;5094284;28;20173;-57
2023/07/31 07:34:18;;;;;;;10.30;6.82;;;;;;;28.00;nan;62564.00;5094493;28;20157;-57
2023/07/31 07:36:43;;;;;;;12.18;7.32;;;;;;;27.90;nan;62560.44;5094132;28;20184;-57
2023/07/31 07:39:11;;;;;;;11.77;7.63;;;;;;;28.37;nan;62531.56;5094161;28;20165;-56
2023/07/31 07:41:36;;;;;;;9.50;6.28;;;;;;;28.28;nan;62531.81;5093867;28;20173;-57
2023/07/31 07:44:02;;;;;;;10.20;6.35;;;;;;;27.97;nan;62484.38;5094030;28;20180;-57
2023/07/31 07:46:27;;;;;;;10.63;6.70;;;;;;;28.28;nan;62544.94;5093756;28;20655;-56
2023/07/31 07:48:52;;;;;;;11.15;6.82;;;;;;;28.39;nan;62623.81;5093792;28;20201;-58
2023/07/31 07:51:18;;;;;;;9.98;6.03;;;;;;;28.82;nan;62817.22;5094123;28;20586;-58
2023/07/31 07:53:43;;;;;;;9.77;6.90;;;;;;;28.78;nan;62580.50;5093024;28;20162;-58
2023/07/31 07:56:09;;;;;;;11.20;6.93;;;;;;;28.95;nan;62818.97;5091941;28;20169;-58
2023/07/31 07:58:34;;;;;;;15.35;8.25;;;;;;;28.55;nan;62597.44;5092214;28;20279;-58
2023/07/31 08:00:59;;;;;;;12.90;7.38;;;;;;;28.30;nan;62516.25;5092221;28;20172;-56
2023/07/31 08:03:25;;;;;;;9.43;6.22;;;;;;;28.60;nan;62588.84;5092563;28;20275;-56
2023/07/31 08:05:50;;;;;;;8.77;6.15;;;;;;;28.74;nan;62608.09;5092722;28;20217;-56
2023/07/31 08:08:16;;;;;;;10.35;6.38;;;;;;;28.94;nan;62630.97;5088426;28;20233;-57
2023/07/31 08:10:42;;;;;;;12.25;6.45;;;;;;;28.96;nan;62764.84;5079629;28;20181;-56
2023/07/31 08:13:09;;;;;;;9.02;6.45;;;;;;;28.93;nan;62774.56;5085351;28;20189;-57
2023/07/31 08:15:34;;;;;;;10.43;6.75;;;;;;;28.97;nan;62847.59;5073731;28;20275;-58
2023/07/31 08:18:00;;;;;;;9.90;6.60;;;;;;;29.20;nan;62801.75;5087304;28;20651;-57
2023/07/31 08:20:26;;;;;;;11.07;6.80;;;;;;;29.50;nan;62852.00;5094151;28;20537;-57
2023/07/31 08:22:52;;;;;;;8.50;6.22;;;;;;;29.67;nan;62826.69;5093974;28;20204;-58
2023/07/31 08:25:18;;;;;;;9.25;6.35;;;;;;;29.69;nan;62815.81;5093951;28;20219;-58
2023/07/31 08:27:44;;;;;;;11.52;6.95;;;;;;;29.65;nan;62840.19;5093514;28;20225;-57
2023/07/31 08:30:11;;;;;;;9.20;6.05;;;;;;;29.70;nan;62866.44;5093441;28;20623;-57
2023/07/31 08:32:36;;;;;;;12.93;7.40;;;;;;;29.88;nan;62873.34;5093587;28;20185;-58
2023/07/31 08:35:02;;;;;;;10.93;7.15;;;;;;;29.80;nan;62883.78;5094086;28;20553;-57
2023/07/31 08:37:27;;;;;;;11.98;7.05;;;;;;;29.56;nan;62835.16;5093521;28;20169;-58
2023/07/31 08:39:54;;;;;;;9.73;6.70;;;;;;;29.70;nan;62845.94;5093313;28;20177;-58
2023/07/31 08:42:20;;;;;;;11.88;7.32;;;;;;;30.05;nan;62916.63;5093515;28;20179;-56
2023/07/31 08:44:46;;;;;;;11.20;7.13;;;;;;;30.20;nan;63039.91;5093489;28;20177;-57
2023/07/31 08:47:12;;;;;;;11.30;7.30;;;;;;;29.96;nan;62993.28;5093260;28;20242;-58
2023/07/31 08:49:40;;;;;;;12.13;7.25;;;;;;;29.90;nan;62970.56;5093198;28;20173;-56
2023/07/31 08:52:06;;;;;;;10.10;6.68;;;;;;;29.78;nan;62996.88;5093152;28;20190;-56
2023/07/31 08:54:33;;;;;;;11.75;7.20;;;;;;;29.66;nan;62799.19;5093512;28;20165;-56
2023/07/31 08:56:59;;;;;;;10.10;6.88;;;;;;;28.58;nan;62850.16;5093167;28;20181;-57
2023/07/31 08:59:29;;;;;;;11.13;7.47;;;;;;;30.23;nan;62948.41;5092866;28;20539;-58
2023/07/31 09:01:57;;;;;;;11.20;7.65;;;;;;;31.07;nan;63109.84;5086317;28;20571;-58
2023/07/31 09:04:23;;;;;;;11.13;7.20;;;;;;;30.88;nan;63100.56;5081572;28;20180;-57
2023/07/31 09:06:49;;;;;;;10.50;6.43;;;;;;;30.74;nan;63055.44;5081467;28;20220;-57
2023/07/31 09:09:15;;;;;;;9.55;6.40;;;;;;;30.55;nan;62986.66;5072761;28;20185;-57
2023/07/31 09:11:40;;;;;;;11.02;6.28;;;;;;;30.53;nan;63056.19;5089155;28;20185;-58
2023/07/31 09:14:08;;;;;;;10.38;7.03;;;;;;;30.69;nan;63137.38;5093465;28;20168;-56
2023/07/31 09:16:34;;;;;;;9.27;6.53;;;;;;;;;;5093541;28;20175;-57
2023/07/31 09:19:01;;;;;;;10.15;6.72;;;;;;;31.09;nan;63169.66;5092955;28;20554;-58
2023/07/31 09:21:27;;;;;;;10.60;6.80;;;;;;;30.99;nan;63036.63;5092884;28;20177;-57
2023/07/31 09:23:54;;;;;;;12.43;7.40;;;;;;;31.01;nan;63070.66;5092720;28;20244;-57
2023/07/31 09:26:36;;;;;;;11.10;6.68;;;;;;;31.04;nan;63303.88;5092372;28;20229;-57
2023/07/31 09:29:07;;;;;;;11.75;7.13;;;;;;;30.33;nan;62995.66;5092354;28;20192;-57
2023/07/31 09:31:43;;;;;;;11.90;6.35;;;;;;;30.56;nan;63138.81;5092294;28;20177;-56
2023/07/31 09:34:11;;;;;;;9.95;6.03;;;;;;;30.71;nan;63002.97;5077354;28;20181;-57
2023/07/31 09:36:43;;;;;;;9.02;6.22;;;;;;;31.46;nan;63201.69;5089435;28;20606;-58
2023/07/31 09:39:11;;;;;;;10.35;6.60;;;;;;;31.28;nan;63190.97;5051830;28;20174;-58
2023/07/31 09:41:39;;;;;;;11.18;6.60;;;;;;;31.71;nan;63202.94;5062714;28;20594;-57
2023/07/31 09:44:05;;;;;;;8.55;6.32;;;;;;;31.76;nan;63174.31;5092339;28;20253;-58
2023/07/31 09:46:31;;;;;;;8.82;6.60;;;;;;;32.13;nan;63296.28;5092350;28;20628;-57
2023/07/31 09:49:10;;;;;;;9.15;5.93;;;;;;;31.69;nan;63193.25;5092055;28;20222;-56
2023/07/31 09:51:40;;;;;;;8.68;5.97;;;;;;;32.28;nan;63532.66;5091914;28;20177;-56
2023/07/31 09:54:13;;;;;;;8.75;5.68;;;;;;;32.00;nan;63212.50;5092632;28;20173;-59
2023/07/31 09:56:49;;;;;;;8.93;6.10;;;;;;;32.30;nan;63347.66;5091601;28;20263;-57
2023/07/31 09:59:16;;;;;;;10.60;6.32;;;;;;;31.97;nan;63346.59;5092006;28;20180;-57
2023/07/31 10:01:43;;;;;;;9.80;6.50;;;;;;;31.56;nan;63167.72;5091892;28;20685;-56
2023/07/31 10:04:10;;;;;;;9.57;6.47;;;;;;;31.74;nan;63217.53;5091613;28;20180;-57
2023/07/31 10:06:36;;;;;;;9.98;6.00;;;;;;;30.67;nan;63196.34;5092270;28;20713;-58
2023/07/31 10:09:07;;;;;;;8.88;5.95;;;;;;;31.80;nan;63311.69;5092101;28;20197;-58
2023/07/31 10:11:50;;;;;;;9.93;6.00;;;;;;;32.40;nan;63332.13;5092230;28;20250;-58
2023/07/31 10:14:20;;;;;;;8.90;5.75;;;;;;;32.57;nan;63470.28;5091982;28;20173;-58
2023/07/31 10:16:47;;;;;;;9.05;5.80;;;;;;;32.51;nan;63418.94;5091622;28;20164;-58
2023/07/31 10:19:12;;;;;;;9.00;5.95;;;;;;;32.61;nan;63376.94;5092119;28;20169;-58
2023/07/31 10:21:38;;;;;;;7.75;5.60;;;;;;;32.44;nan;63379.69;5092288;28;20185;-57
2023/07/31 10:24:05;;;;;;;10.00;6.05;;;;;;;32.15;nan;63313.88;5092594;28;20164;-58
2023/07/31 10:26:32;;;;;;;10.27;6.63;;;;;;;31.87;nan;63268.94;5091992;28;20184;-58
2023/07/31 10:28:58;;;;;;;8.25;5.97;;;;;;;32.39;nan;63313.03;5091675;28;20199;-57
2023/07/31 10:31:24;;;;;;;9.25;6.03;;;;;;;32.56;nan;63350.00;5092199;28;20172;-58
2023/07/31 10:33:52;;;;;;;9.32;6.30;;;;;;;32.96;nan;63493.63;5092132;28;20164;-57
2023/07/31 10:36:19;;;;;;;10.90;6.63;;;;;;;32.66;nan;63423.03;5092259;28;20177;-57
2023/07/31 10:38:45;;;;;;;8.75;6.15;;;;;;;32.42;nan;63335.00;5091663;28;20176;-58
2023/07/31 10:41:11;;;;;;;8.38;5.90;;;;;;;32.52;nan;63435.97;5091600;28;20675;-58
2023/07/31 10:43:38;;;;;;;9.02;5.93;;;;;;;32.34;nan;63327.84;5091294;28;20177;-57
2023/07/31 10:46:09;;;;;;;7.43;4.90;;;;;;;32.62;nan;63457.53;5091460;28;20173;-58
2023/07/31 10:48:36;;;;;;;7.65;5.60;;;;;;;32.28;nan;63512.06;5091202;28;20593;-57
2023/07/31 10:51:10;;;;;;;9.85;5.65;;;;;;;32.68;nan;63375.03;5091398;28;20181;-57
2023/07/31 10:53:35;;;;;;;8.68;5.75;;;;;;;33.24;nan;63480.94;5091555;28;20593;-57
2023/07/31 10:56:05;;;;;;;7.95;5.43;;;;;;;30.61;nan;63078.56;5071549;28;20631;-59
2023/07/31 10:58:32;;;;;;;8.90;5.60;;;;;;;33.34;nan;63529.03;5070971;28;20204;-58
2023/07/31 11:01:03;;;;;;;7.40;4.78;;;;;;;33.16;nan;63469.03;5070583;28;20174;-57
2023/07/31 11:03:46;;;;;;;7.03;5.00;;;;;;;32.82;nan;63406.50;5070668;28;20691;-57
2023/07/31 11:06:13;;;;;;;7.70;4.95;;;;;;;32.87;nan;63399.03;5071209;28;20308;-58
2023/07/31 11:08:46;;;;;;;8.15;4.90;;;;;;;33.27;nan;63553.31;5070802;28;20638;-57
2023/07/31 11:11:14;;;;;;;6.32;4.75;;;;;;;33.19;nan;63488.41;5070904;28;20196;-58
2023/07/31 11:13:42;;;;;;;9.43;6.28;;;;;;;31.05;nan;63128.66;5070995;28;20180;-58
2023/07/31 11:16:08;;;;;;;8.93;6.32;;;;;;;29.03;nan;62866.50;5070629;28;20569;-57
2023/07/31 11:18:34;;;;;;;7.55;5.50;;;;;;;28.27;nan;62743.59;5070024;28;20304;-57
2023/07/31 11:21:00;;;;;;;7.30;5.00;;;;;;;27.89;nan;62577.69;5085407;28;20173;-57
2023/07/31 11:23:25;;;;;;;7.13;5.10;;;;;;;27.60;nan;62552.97;5073013;28;20189;-57
2023/07/31 11:28:20;;;;;;;7.32;5.20;;;;;;;27.48;nan;62620.63;5041553;28;20235;-60
2023/07/31 11:30:46;;;;;;;7.07;5.07;;;;;;;27.65;nan;62615.91;5052840;28;20617;-61
2023/07/31 11:33:13;;;;;;;6.07;4.72;;;;;;;28.06;nan;62623.44;5053805;28;20287;-60
2023/07/31 11:35:44;;;;;;;8.35;5.20;;;;;;;28.45;nan;62741.16;5061022;28;20186;-61
2023/07/31 11:38:11;;;;;;;7.07;5.05;;;;;;;28.51;nan;62689.59;5073667;28;20273;-61
2023/07/31 11:40:44;;;;;;;8.00;5.68;;;;;;;28.44;nan;62786.75;5073892;28;20517;-60
2023/07/31 11:43:11;;;;;;;11.32;5.60;;;;;;;28.62;nan;62848.94;5073892;28;20185;-60
2023/07/31 11:45:36;;;;;;;7.32;4.85;;;;;;;28.60;nan;62909.75;5073474;28;20177;-59
2023/07/31 11:48:03;;;;;;;6.80;4.80;;;;;;;28.26;nan;62750.91;5073583;28;20263;-60